createdAt,value
2017-12-05T00:00:13.390Z,99618.34
2017-12-05T00:01:16.611Z,99616.45
2017-12-05T00:02:19.547Z,99598.78
2017-12-05T00:03:22.754Z,99622.75
2017-12-05T00:04:25.717Z,99623.48
2017-12-05T00:05:28.685Z,99609.36
2017-12-05T00:06:31.639Z,99610.37
2017-12-05T00:07:34.599Z,99626.78
2017-12-05T00:08:37.514Z,99621.39
2017-12-05T00:09:40.758Z,99625.72
2017-12-05T00:10:44.201Z,99610.04
2017-12-05T00:11:47.309Z,99611.06
2017-12-05T00:12:50.296Z,99615.13
2017-12-05T00:13:53.306Z,99629.02
2017-12-05T00:14:56.387Z,99615.24
2017-12-05T00:15:59.603Z,99619.27
2017-12-05T00:17:03.068Z,99623.55
2017-12-05T00:18:06.484Z,99623.86
2017-12-05T00:19:11.041Z,99623.58
2017-12-05T00:20:14.845Z,99621.09
2017-12-05T00:21:18.162Z,99618.28
2017-12-05T00:22:22.428Z,99618.90
2017-12-05T00:23:25.775Z,99618.20
2017-12-05T00:24:28.984Z,99626.04
2017-12-05T00:25:31.963Z,99607.19
2017-12-05T00:26:35.242Z,99622.57
2017-12-05T00:27:39.100Z,99614.03
2017-12-05T00:28:43.742Z,99620.08
2017-12-05T00:29:47.076Z,99621.89
2017-12-05T00:30:50.064Z,99614.03
2017-12-05T00:31:52.962Z,99607.44
2017-12-05T00:32:55.949Z,99617.13
2017-12-05T00:33:58.971Z,99617.48
2017-12-05T00:35:02.239Z,99613.23
2017-12-05T00:36:05.283Z,99615.56
2017-12-05T00:37:08.335Z,99624.20
2017-12-05T00:38:11.361Z,99606.07
2017-12-05T00:39:14.713Z,99607.03
2017-12-05T00:42:46.441Z,99601.62
2017-12-05T00:43:49.810Z,99587.52
2017-12-05T00:44:52.843Z,99609.56
2017-12-05T00:45:56.819Z,99604.45
2017-12-05T00:47:00.201Z,99605.88
2017-12-05T00:48:03.909Z,99601.67
2017-12-05T00:49:07.915Z,99612.01
2017-12-05T00:50:11.377Z,99609.96
2017-12-05T00:51:14.942Z,99618.27
2017-12-05T00:52:17.939Z,99619.87
2017-12-05T00:53:20.925Z,99613.13
2017-12-05T00:54:23.891Z,99609.08
2017-12-05T00:55:27.173Z,99610.77
2017-12-05T00:56:30.139Z,99604.97
2017-12-05T00:57:33.139Z,99603.39
2017-12-05T00:58:36.144Z,99607.63
2017-12-05T00:59:39.132Z,99610.91
2017-12-05T01:00:42.501Z,99612.56
2017-12-05T01:01:46.099Z,99614.70
2017-12-05T01:02:49.108Z,99614.70
2017-12-05T01:03:52.127Z,99623.90
2017-12-05T01:04:55.105Z,99617.63
2017-12-05T01:05:58.119Z,99607.70
2017-12-05T01:07:01.090Z,99597.48
2017-12-05T01:08:04.412Z,99606.51
2017-12-05T01:09:07.449Z,99611.95
2017-12-05T01:10:10.457Z,99599.84
2017-12-05T01:11:13.421Z,99603.01
2017-12-05T01:12:16.489Z,99609.89
2017-12-05T01:13:19.513Z,99609.98
2017-12-05T01:14:22.915Z,99614.84
2017-12-05T01:15:25.975Z,99605.40
2017-12-05T01:16:29.076Z,99606.70
2017-12-05T01:17:33.006Z,99598.70
2017-12-05T01:18:36.064Z,99596.28
2017-12-05T01:19:39.056Z,99602.34
2017-12-05T01:20:42.340Z,99588.63
2017-12-05T01:21:45.287Z,99589.45
2017-12-05T01:22:48.272Z,99595.67
2017-12-05T01:23:51.243Z,99598.00
2017-12-05T01:24:54.203Z,99586.03
2017-12-05T01:25:57.164Z,99595.34
2017-12-05T01:27:00.715Z,99598.88
2017-12-05T01:28:03.749Z,99587.92
2017-12-05T01:29:06.767Z,99602.11
2017-12-05T01:30:09.824Z,99608.38
2017-12-05T01:31:12.736Z,99600.55
2017-12-05T01:32:15.680Z,99605.89
2017-12-05T01:33:18.989Z,99608.77
2017-12-05T01:34:21.859Z,99608.32
2017-12-05T01:35:24.781Z,99621.09
2017-12-05T01:36:27.693Z,99606.09
2017-12-05T01:37:30.667Z,99607.41
2017-12-05T01:38:34.541Z,99606.14
2017-12-05T01:39:37.422Z,99621.88
2017-12-05T01:40:40.336Z,99615.55
2017-12-05T01:41:43.293Z,99613.58
2017-12-05T01:42:46.288Z,99606.53
2017-12-05T01:43:49.295Z,99615.85
2017-12-05T01:44:52.312Z,99609.66
2017-12-05T01:45:55.552Z,99619.52
2017-12-05T01:46:58.667Z,99613.48
2017-12-05T01:48:01.558Z,99614.17
2017-12-05T01:49:04.443Z,99620.37
2017-12-05T01:50:07.352Z,99617.55
2017-12-05T01:51:10.261Z,99597.86
2017-12-05T01:52:13.541Z,99604.74
2017-12-05T01:53:16.667Z,99613.51
2017-12-05T01:59:19.237Z,99609.73
2017-12-05T02:00:22.094Z,99602.97
2017-12-05T02:01:25.042Z,99623.16
2017-12-05T02:02:27.961Z,99620.92
2017-12-05T02:03:30.939Z,99592.23
2017-12-05T02:04:34.064Z,99605.04
2017-12-05T02:05:37.493Z,99626.39
2017-12-05T02:06:40.455Z,99638.68
2017-12-05T02:07:43.439Z,99626.09
2017-12-05T02:08:46.421Z,99637.27
2017-12-05T02:09:49.373Z,99621.24
2017-12-05T02:10:52.433Z,99613.34
2017-12-05T02:11:55.715Z,99633.95
2017-12-05T02:12:58.639Z,99604.89
2017-12-05T02:14:01.675Z,99637.00
2017-12-05T02:15:04.650Z,99626.83
2017-12-05T02:16:07.654Z,99636.44
2017-12-05T02:17:10.546Z,99635.72
2017-12-05T02:18:13.998Z,99643.77
2017-12-05T02:19:17.045Z,99638.03
2017-12-05T02:20:20.034Z,99630.05
2017-12-05T02:21:23.190Z,99631.09
2017-12-05T02:22:26.162Z,99632.66
2017-12-05T02:23:29.144Z,99645.47
2017-12-05T02:24:32.570Z,99648.55
2017-12-05T02:25:35.483Z,99649.42
2017-12-05T02:26:38.467Z,99642.14
2017-12-05T02:27:41.427Z,99649.31
2017-12-05T02:28:44.378Z,99644.45
2017-12-05T02:29:47.346Z,99654.16
2017-12-05T02:30:50.607Z,99649.82
2017-12-05T02:31:53.526Z,99654.20
2017-12-05T02:32:56.484Z,99643.37
2017-12-05T02:33:59.467Z,99649.38
2017-12-05T02:35:02.403Z,99649.13
2017-12-05T02:36:05.397Z,99656.37
2017-12-05T02:37:08.594Z,99638.86
2017-12-05T02:38:11.520Z,99648.85
2017-12-05T02:39:14.546Z,99630.52
2017-12-05T02:40:17.516Z,99629.80
2017-12-05T02:41:20.563Z,99653.70
2017-12-05T02:42:23.524Z,99651.28
2017-12-05T02:43:26.948Z,99654.56
2017-12-05T02:44:29.927Z,99654.78
2017-12-05T02:45:32.873Z,99656.91
2017-12-05T02:46:35.843Z,99651.34
2017-12-05T02:47:38.783Z,99656.64
2017-12-05T02:48:41.806Z,99654.94
2017-12-05T02:49:45.028Z,99654.34
2017-12-05T02:50:48.053Z,99648.69
2017-12-05T02:51:51.013Z,99655.17
2017-12-05T02:52:53.996Z,99661.48
2017-12-05T02:53:56.919Z,99642.59
2017-12-05T02:54:59.946Z,99651.10
2017-12-05T02:56:03.248Z,99656.36
2017-12-05T02:57:06.193Z,99650.10
2017-12-05T02:58:09.203Z,99644.63
2017-12-05T02:59:12.199Z,99654.38
2017-12-05T03:00:15.168Z,99651.72
2017-12-05T03:01:18.099Z,99653.47
2017-12-05T03:02:21.464Z,99650.31
2017-12-05T03:03:24.465Z,99642.42
2017-12-05T03:04:27.507Z,99652.02
2017-12-05T03:05:30.524Z,99662.84
2017-12-05T03:06:33.539Z,99645.54
2017-12-05T03:07:36.756Z,99657.66
2017-12-05T03:08:40.048Z,99649.53
2017-12-05T03:09:43.001Z,99651.80
2017-12-05T03:10:45.981Z,99649.19
2017-12-05T03:11:48.828Z,99654.55
2017-12-05T03:12:52.650Z,99638.58
2017-12-05T03:13:55.615Z,99637.34
2017-12-05T03:14:58.947Z,99648.73
2017-12-05T03:16:01.867Z,99654.20
2017-12-05T03:17:04.756Z,99658.09
2017-12-05T03:18:07.588Z,99644.05
2017-12-05T03:19:10.464Z,99663.02
2017-12-05T03:20:13.549Z,99660.03
2017-12-05T03:21:16.720Z,99662.16
2017-12-05T03:22:19.577Z,99670.44
2017-12-05T03:23:22.435Z,99668.58
2017-12-05T03:24:25.355Z,99665.66
2017-12-05T03:25:28.271Z,99668.36
2017-12-05T03:26:31.250Z,99667.00
2017-12-05T03:27:34.586Z,99674.73
2017-12-05T03:28:37.478Z,99657.45
2017-12-05T03:29:40.358Z,99660.19
2017-12-05T03:30:43.237Z,99663.27
2017-12-05T03:31:46.153Z,99658.19
2017-12-05T03:32:49.121Z,99661.20
2017-12-05T03:33:52.411Z,99665.09
2017-12-05T03:34:55.378Z,99671.38
2017-12-05T03:35:58.320Z,99666.22
2017-12-05T03:37:01.238Z,99668.81
2017-12-05T03:38:04.163Z,99655.00
2017-12-05T03:39:07.134Z,99654.64
2017-12-05T03:40:10.383Z,99660.33
2017-12-05T03:41:13.376Z,99656.10
2017-12-05T03:42:16.416Z,99670.77
2017-12-05T03:43:19.416Z,99668.22
2017-12-05T03:44:22.384Z,99665.27
2017-12-05T03:45:25.330Z,99654.30
2017-12-05T03:46:28.795Z,99646.18
2017-12-05T03:47:31.728Z,99666.64
2017-12-05T03:48:34.756Z,99664.50
2017-12-05T03:49:37.691Z,99662.53
2017-12-05T03:50:40.696Z,99666.81
2017-12-05T03:51:43.721Z,99644.83
2017-12-05T03:52:47.015Z,99646.91
2017-12-05T03:53:49.856Z,99657.17
2017-12-05T03:54:52.713Z,99659.03
2017-12-05T03:55:55.560Z,99651.42
2017-12-05T03:56:58.501Z,99658.02
2017-12-05T03:58:01.406Z,99659.66
2017-12-05T03:59:04.755Z,99636.88
2017-12-05T04:00:07.666Z,99651.52
2017-12-05T04:01:10.627Z,99651.77
2017-12-05T04:02:13.604Z,99626.39
2017-12-05T04:04:33.402Z,99655.57
2017-12-05T04:05:36.706Z,99657.52
2017-12-05T04:06:39.670Z,99656.61
2017-12-05T04:07:42.619Z,99665.83
2017-12-05T04:08:45.624Z,99654.41
2017-12-05T04:09:48.571Z,99639.62
2017-12-05T04:10:51.856Z,99650.50
2017-12-05T04:11:54.808Z,99665.02
2017-12-05T04:12:57.774Z,99660.78
2017-12-05T04:14:00.731Z,99646.38
2017-12-05T04:15:03.683Z,99606.02
2017-12-05T04:16:06.699Z,99649.63
2017-12-05T04:17:09.954Z,99642.34
2017-12-05T04:18:12.883Z,99649.34
2017-12-05T04:19:15.820Z,99645.95
2017-12-05T04:20:18.821Z,99653.03
2017-12-05T04:21:21.775Z,99655.43
2017-12-05T04:22:24.647Z,99639.00
2017-12-05T04:23:27.834Z,99658.16
2017-12-05T04:24:30.689Z,99655.00
2017-12-05T04:25:33.582Z,99652.02
2017-12-05T04:26:36.502Z,99663.63
2017-12-05T04:27:39.387Z,99652.36
2017-12-05T04:28:42.237Z,99659.63
2017-12-05T04:29:45.403Z,99657.14
2017-12-05T04:30:48.439Z,99645.31
2017-12-05T04:31:51.539Z,99660.87
2017-12-05T04:32:54.483Z,99658.89
2017-12-05T04:33:57.564Z,99650.33
2017-12-05T04:35:00.542Z,99633.73
2017-12-05T04:36:03.876Z,99619.95
2017-12-05T04:37:06.845Z,99627.89
2017-12-05T04:38:09.805Z,99629.19
2017-12-05T04:39:12.828Z,99625.92
2017-12-05T04:40:21.661Z,99628.41
2017-12-05T04:41:24.605Z,99626.91
2017-12-05T04:42:27.740Z,99650.92
2017-12-05T04:43:30.613Z,99627.95
2017-12-05T04:44:33.390Z,99625.78
2017-12-05T04:46:50.035Z,99616.43
2017-12-05T04:47:52.869Z,99637.11
2017-12-05T04:48:55.720Z,99645.51
2017-12-05T04:49:58.572Z,99642.02
2017-12-05T04:51:01.414Z,99630.52
2017-12-05T04:52:04.238Z,99646.16
2017-12-05T04:53:07.040Z,99629.16
2017-12-05T04:54:09.951Z,99642.86
2017-12-05T04:55:12.874Z,99639.08
2017-12-05T04:56:15.760Z,99660.89
2017-12-05T04:57:18.767Z,99647.94
2017-12-05T04:58:21.667Z,99660.78
2017-12-05T04:59:24.843Z,99656.38
2017-12-05T05:00:27.707Z,99653.84
2017-12-05T05:01:30.734Z,99666.48
2017-12-05T05:02:33.646Z,99648.05
2017-12-05T05:03:36.607Z,99652.10
2017-12-05T05:04:39.656Z,99661.52
2017-12-05T05:05:42.894Z,99655.31
2017-12-05T05:06:45.981Z,99663.26
2017-12-05T05:07:48.930Z,99662.98
2017-12-05T05:08:51.981Z,99670.36
2017-12-05T05:09:54.962Z,99662.13
2017-12-05T05:10:57.931Z,99656.67
2017-12-05T05:12:01.392Z,99655.83
2017-12-05T05:13:04.340Z,99664.61
2017-12-05T05:14:07.331Z,99673.47
2017-12-05T05:15:10.259Z,99660.83
2017-12-05T05:16:13.362Z,99669.23
2017-12-05T05:17:16.513Z,99658.36
2017-12-05T05:18:19.793Z,99647.39
2017-12-05T05:19:22.940Z,99667.53
2017-12-05T05:20:25.987Z,99666.64
2017-12-05T05:21:29.156Z,99652.83
2017-12-05T05:22:32.235Z,99645.02
2017-12-05T05:23:35.368Z,99657.28
2017-12-05T05:24:38.774Z,99650.48
2017-12-05T05:25:41.810Z,99653.62
2017-12-05T05:26:44.935Z,99651.70
2017-12-05T05:27:47.971Z,99650.99
2017-12-05T05:28:51.090Z,99651.08
2017-12-05T05:29:54.242Z,99653.02
2017-12-05T05:30:57.558Z,99659.81
2017-12-05T05:32:00.534Z,99655.67
2017-12-05T05:33:03.651Z,99646.59
2017-12-05T05:34:06.598Z,99656.91
2017-12-05T05:35:09.610Z,99654.15
2017-12-05T05:36:12.558Z,99648.05
2017-12-05T05:37:15.839Z,99655.95
2017-12-05T05:38:18.811Z,99655.78
2017-12-05T05:39:21.749Z,99640.63
2017-12-05T05:40:24.726Z,99638.99
2017-12-05T05:41:27.863Z,99653.58
2017-12-05T05:42:30.865Z,99653.19
2017-12-05T05:43:34.272Z,99654.55
2017-12-05T05:44:37.345Z,99667.78
2017-12-05T05:45:40.526Z,99651.04
2017-12-05T05:46:43.564Z,99657.25
2017-12-05T05:47:46.607Z,99651.84
2017-12-05T05:48:49.714Z,99644.52
2017-12-05T05:49:52.983Z,99662.49
2017-12-05T05:50:55.983Z,99647.61
2017-12-05T05:51:59.027Z,99641.98
2017-12-05T05:53:02.058Z,99647.89
2017-12-05T05:54:05.020Z,99647.72
2017-12-05T05:55:08.067Z,99641.98
2017-12-05T05:56:11.411Z,99639.33
2017-12-05T05:57:14.290Z,99627.39
2017-12-05T05:58:17.136Z,99648.84
2017-12-05T05:59:20.133Z,99630.48
2017-12-05T06:00:23.050Z,99635.95
2017-12-05T06:01:25.960Z,99656.86
2017-12-05T06:02:29.305Z,99644.12
2017-12-05T06:03:32.404Z,99656.69
2017-12-05T06:04:35.277Z,99646.15
2017-12-05T06:05:38.216Z,99627.95
2017-12-05T06:06:41.280Z,99638.88
2017-12-05T06:07:44.250Z,99648.52
2017-12-05T06:08:47.524Z,99658.43
2017-12-05T06:09:50.518Z,99663.84
2017-12-05T06:10:53.538Z,99654.94
2017-12-05T06:11:56.666Z,99652.40
2017-12-05T06:12:59.720Z,99655.88
2017-12-05T06:14:02.735Z,99662.37
2017-12-05T06:15:06.176Z,99656.28
2017-12-05T06:16:09.186Z,99668.96
2017-12-05T06:17:12.206Z,99664.00
2017-12-05T06:18:15.182Z,99674.03
2017-12-05T06:19:18.227Z,99670.03
2017-12-05T06:20:21.190Z,99659.13
2017-12-05T06:21:24.490Z,99658.05
2017-12-05T06:22:27.522Z,99653.31
2017-12-05T06:23:30.535Z,99668.47
2017-12-05T06:24:33.568Z,99674.56
2017-12-05T06:25:36.535Z,99681.37
2017-12-05T06:26:39.544Z,99677.97
2017-12-05T06:27:42.644Z,99680.29
2017-12-05T06:28:45.675Z,99674.62
2017-12-05T06:29:48.863Z,99680.11
2017-12-05T06:30:52.403Z,99681.72
2017-12-05T06:31:55.412Z,99690.83
2017-12-05T06:32:59.491Z,99678.03
2017-12-05T06:34:02.911Z,99674.44
2017-12-05T06:35:08.063Z,99684.69
2017-12-05T06:36:11.991Z,99665.31
2017-12-05T06:37:15.000Z,99678.22
2017-12-05T06:38:17.977Z,99682.33
2017-12-05T06:39:21.087Z,99682.98
2017-12-05T06:40:24.470Z,99686.16
2017-12-05T06:41:27.405Z,99675.21
2017-12-05T06:42:30.435Z,99690.77
2017-12-05T06:43:33.397Z,99688.00
2017-12-05T06:44:36.358Z,99685.69
2017-12-05T06:45:40.301Z,99690.50
2017-12-05T06:46:43.574Z,99676.34
2017-12-05T06:47:46.722Z,99693.59
2017-12-05T06:48:49.710Z,99676.13
2017-12-05T06:49:52.740Z,99685.88
2017-12-05T06:50:55.739Z,99688.75
2017-12-05T06:51:58.755Z,99688.29
2017-12-05T06:53:02.296Z,99689.80
2017-12-05T06:54:05.273Z,99685.25
2017-12-05T06:55:08.276Z,99671.63
2017-12-05T06:56:11.271Z,99681.68
2017-12-05T06:57:14.239Z,99683.13
2017-12-05T06:58:17.295Z,99696.86
2017-12-05T06:59:20.674Z,99691.49
2017-12-05T07:00:23.650Z,99697.81
2017-12-05T07:01:26.752Z,99701.13
2017-12-05T07:02:29.800Z,99696.86
2017-12-05T07:03:32.765Z,99685.96
2017-12-05T07:04:35.717Z,99691.33
2017-12-05T07:05:39.160Z,99694.94
2017-12-05T07:06:42.215Z,99696.17
2017-12-05T07:07:45.195Z,99697.02
2017-12-05T07:08:48.220Z,99692.76
2017-12-05T07:09:51.766Z,99690.02
2017-12-05T07:10:54.771Z,99700.08
2017-12-05T07:11:57.715Z,99695.72
2017-12-05T07:13:00.785Z,99697.60
2017-12-05T07:14:03.755Z,99698.59
2017-12-05T07:15:06.825Z,99698.66
2017-12-05T07:16:10.868Z,99694.30
2017-12-05T07:17:15.460Z,99698.76
2017-12-05T07:18:18.564Z,99705.52
2017-12-05T07:19:21.504Z,99700.34
2017-12-05T07:20:24.530Z,99691.05
2017-12-05T07:21:27.564Z,99697.58
2017-12-05T07:22:30.536Z,99709.13
2017-12-05T07:23:33.969Z,99692.71
2017-12-05T07:24:36.987Z,99702.31
2017-12-05T07:25:40.008Z,99704.76
2017-12-05T07:26:43.024Z,99701.77
2017-12-05T07:27:46.851Z,99709.20
2017-12-05T07:28:50.106Z,99698.44
2017-12-05T07:29:53.106Z,99705.14
2017-12-05T07:30:56.136Z,99714.42
2017-12-05T07:31:59.611Z,99704.92
2017-12-05T07:33:02.626Z,99715.68
2017-12-05T07:34:05.609Z,99720.58
2017-12-05T07:35:08.599Z,99714.20
2017-12-05T07:36:11.588Z,99711.05
2017-12-05T07:37:14.556Z,99718.05
2017-12-05T07:38:17.559Z,99714.20
2017-12-05T07:39:20.626Z,99717.93
2017-12-05T07:40:23.869Z,99724.13
2017-12-05T07:41:27.014Z,99707.95
2017-12-05T07:42:30.545Z,99712.23
2017-12-05T07:43:34.496Z,99731.83
2017-12-05T07:44:37.556Z,99717.34
2017-12-05T07:45:40.545Z,99718.20
2017-12-05T07:46:43.539Z,99726.59
2017-12-05T07:47:46.672Z,99719.56
2017-12-05T07:48:49.659Z,99708.77
2017-12-05T07:49:52.683Z,99714.48
2017-12-05T07:50:55.638Z,99717.25
2017-12-05T07:51:58.962Z,99714.20
2017-12-05T07:53:02.028Z,99709.30
2017-12-05T07:54:05.066Z,99713.41
2017-12-05T07:55:08.061Z,99719.95
2017-12-05T07:56:11.033Z,99715.17
2017-12-05T07:57:14.116Z,99714.93
2017-12-05T07:58:17.596Z,99721.41
2017-12-05T07:59:20.631Z,99703.88
2017-12-05T08:00:23.777Z,99721.61
2017-12-05T08:01:26.775Z,99722.77
2017-12-05T08:02:29.759Z,99724.64
2017-12-05T08:03:32.857Z,99719.19
2017-12-05T08:04:36.194Z,99719.22
2017-12-05T08:05:39.226Z,99723.45
2017-12-05T08:06:42.320Z,99714.76
2017-12-05T08:07:45.422Z,99716.11
2017-12-05T08:08:48.422Z,99725.72
2017-12-05T08:09:51.427Z,99726.36
2017-12-05T08:10:54.759Z,99712.03
2017-12-05T08:11:57.815Z,99720.28
2017-12-05T08:13:00.916Z,99721.95
2017-12-05T08:14:03.910Z,99715.78
2017-12-05T08:15:06.933Z,99719.39
2017-12-05T08:16:09.972Z,99731.41
2017-12-05T08:17:13.375Z,99731.51
2017-12-05T08:18:16.288Z,99726.87
2017-12-05T08:19:19.410Z,99723.73
2017-12-05T08:20:22.399Z,99722.16
2017-12-05T08:21:25.284Z,99722.95
2017-12-05T08:22:28.305Z,99722.76
2017-12-05T08:23:31.387Z,99722.34
2017-12-05T08:24:34.221Z,99726.11
2017-12-05T08:25:37.180Z,99725.65
2017-12-05T08:26:40.098Z,99727.34
2017-12-05T08:27:43.023Z,99720.73
2017-12-05T08:28:46.096Z,99728.97
2017-12-05T08:29:49.385Z,99709.55
2017-12-05T08:30:52.423Z,99728.08
2017-12-05T08:31:55.433Z,99722.03
2017-12-05T08:32:58.468Z,99729.14
2017-12-05T08:34:02.546Z,99733.06
2017-12-05T08:35:05.542Z,99721.59
2017-12-05T08:36:08.499Z,99721.02
2017-12-05T08:37:11.594Z,99724.22
2017-12-05T08:38:14.597Z,99722.14
2017-12-05T08:39:17.803Z,99722.63
2017-12-05T08:40:20.733Z,99729.11
2017-12-05T08:41:23.978Z,99732.16
2017-12-05T08:42:26.956Z,99721.36
2017-12-05T08:43:29.975Z,99729.67
2017-12-05T08:44:32.998Z,99732.86
2017-12-05T08:45:36.109Z,99728.11
2017-12-05T08:46:39.088Z,99734.34
2017-12-05T08:47:42.532Z,99726.48
2017-12-05T08:48:45.762Z,99716.41
2017-12-05T08:49:48.766Z,99720.15
2017-12-05T08:50:52.548Z,99717.44
2017-12-05T08:51:55.626Z,99718.16
2017-12-05T08:52:59.727Z,99725.28
2017-12-05T08:54:03.165Z,99721.56
2017-12-05T08:55:06.032Z,99710.34
2017-12-05T08:56:08.947Z,99733.34
2017-12-05T08:57:11.939Z,99729.36
2017-12-05T08:58:14.931Z,99731.28
2017-12-05T08:59:17.889Z,99711.16
2017-12-05T09:00:21.310Z,99719.52
2017-12-05T09:01:24.340Z,99721.81
2017-12-05T09:02:27.335Z,99722.59
2017-12-05T09:03:33.056Z,99729.06
2017-12-05T09:04:36.105Z,99719.45
2017-12-05T09:05:39.152Z,99727.80
2017-12-05T09:06:42.135Z,99731.56
2017-12-05T09:07:45.174Z,99721.02
2017-12-05T09:08:48.098Z,99730.76
2017-12-05T09:09:51.178Z,99727.86
2017-12-05T09:10:54.195Z,99728.64
2017-12-05T09:11:57.561Z,99731.47
2017-12-05T09:13:00.634Z,99736.45
2017-12-05T09:14:03.506Z,99726.44
2017-12-05T09:15:06.502Z,99720.16
2017-12-05T09:16:09.607Z,99725.59
2017-12-05T09:17:12.607Z,99721.54
2017-12-05T09:18:15.981Z,99719.02
2017-12-05T09:19:19.026Z,99729.70
2017-12-05T09:20:22.053Z,99719.00
2017-12-05T09:21:25.094Z,99719.15
2017-12-05T09:22:28.101Z,99721.47
2017-12-05T09:24:33.196Z,99731.12
2017-12-05T09:25:36.683Z,99731.02
2017-12-05T09:26:39.752Z,99726.49
2017-12-05T09:28:53.955Z,99732.18
2017-12-05T09:29:57.228Z,99737.73
2017-12-05T09:31:00.298Z,99733.38
2017-12-05T09:32:03.254Z,99738.19
2017-12-05T09:33:06.324Z,99732.20
2017-12-05T09:34:09.371Z,99736.44
2017-12-05T09:35:13.270Z,99731.73
2017-12-05T09:36:16.259Z,99728.30
2017-12-05T09:37:19.299Z,99734.68
2017-12-05T09:38:22.371Z,99730.28
2017-12-05T09:39:25.423Z,99731.30
2017-12-05T09:40:28.419Z,99735.86
2017-12-05T09:41:31.815Z,99731.64
2017-12-05T09:42:34.755Z,99743.66
2017-12-05T09:43:37.821Z,99733.77
2017-12-05T09:44:40.896Z,99739.36
2017-12-05T09:45:43.890Z,99737.90
2017-12-05T09:46:46.913Z,99744.39
2017-12-05T09:47:50.382Z,99742.62
2017-12-05T09:48:53.361Z,99735.45
2017-12-05T09:49:56.327Z,99731.94
2017-12-05T09:50:59.295Z,99731.47
2017-12-05T09:52:02.366Z,99737.29
2017-12-05T09:53:05.343Z,99741.83
2017-12-05T09:54:08.749Z,99735.61
2017-12-05T09:55:11.806Z,99738.84
2017-12-05T09:56:14.800Z,99739.77
2017-12-05T09:57:17.838Z,99742.70
2017-12-05T09:58:20.975Z,99741.52
2017-12-05T09:59:24.057Z,99742.83
2017-12-05T10:00:27.433Z,99745.11
2017-12-05T10:01:30.423Z,99737.38
2017-12-05T10:02:33.440Z,99746.12
2017-12-05T10:03:36.494Z,99739.88
2017-12-05T10:04:39.487Z,99742.18
2017-12-05T10:05:42.427Z,99730.49
2017-12-05T10:06:45.843Z,99738.58
2017-12-05T10:07:48.925Z,99739.48
2017-12-05T10:08:51.886Z,99732.78
2017-12-05T10:09:54.865Z,99731.82
2017-12-05T10:10:57.856Z,99739.53
2017-12-05T10:12:00.877Z,99747.50
2017-12-05T10:13:04.254Z,99734.23
2017-12-05T10:14:07.214Z,99733.33
2017-12-05T10:15:10.167Z,99731.98
2017-12-05T10:16:13.267Z,99728.38
2017-12-05T10:17:16.250Z,99728.02
2017-12-05T10:18:19.308Z,99733.21
2017-12-05T10:19:22.354Z,99736.14
2017-12-05T10:20:25.351Z,99737.59
2017-12-05T10:21:28.419Z,99731.73
2017-12-05T10:22:31.466Z,99723.50
2017-12-05T10:23:34.788Z,99723.21
2017-12-05T10:24:38.272Z,99725.09
2017-12-05T10:25:41.302Z,99734.89
2017-12-05T10:26:44.678Z,99734.89
2017-12-05T10:27:47.642Z,99733.72
2017-12-05T10:28:50.576Z,99731.69
2017-12-05T10:29:53.489Z,99728.59
2017-12-05T10:30:56.809Z,99715.10
2017-12-05T10:31:59.742Z,99713.45
2017-12-05T10:33:02.723Z,99737.62
2017-12-05T10:34:05.715Z,99736.66
2017-12-05T10:35:08.838Z,99733.70
2017-12-05T10:36:11.913Z,99739.41
2017-12-05T10:37:15.699Z,99730.58
2017-12-05T10:38:18.662Z,99730.91
2017-12-05T10:39:21.640Z,99734.63
2017-12-05T10:40:24.622Z,99740.70
2017-12-05T10:41:27.691Z,99729.65
2017-12-05T10:42:30.667Z,99727.80
2017-12-05T10:43:34.023Z,99734.27
2017-12-05T10:44:37.056Z,99730.29
2017-12-05T10:45:40.166Z,99731.67
2017-12-05T10:46:43.517Z,99724.87
2017-12-05T10:47:46.579Z,99727.11
2017-12-05T10:48:50.107Z,99721.15
2017-12-05T10:49:53.388Z,99725.36
2017-12-05T10:50:56.399Z,99733.05
2017-12-05T10:52:00.335Z,99733.94
2017-12-05T10:53:03.335Z,99719.11
2017-12-05T10:54:06.358Z,99731.69
2017-12-05T10:55:10.266Z,99726.80
2017-12-05T10:56:13.827Z,99729.49
2017-12-05T10:57:16.832Z,99718.58
2017-12-05T10:58:19.978Z,99726.05
2017-12-05T10:59:22.934Z,99715.30
2017-12-05T11:00:25.998Z,99729.13
2017-12-05T11:01:29.106Z,99713.28
2017-12-05T11:02:32.380Z,99722.65
2017-12-05T11:03:35.469Z,99726.40
2017-12-05T11:04:38.519Z,99725.19
2017-12-05T11:05:41.455Z,99722.33
2017-12-05T11:06:44.431Z,99726.42
2017-12-05T11:07:48.370Z,99720.63
2017-12-05T11:08:51.745Z,99720.80
2017-12-05T11:09:54.734Z,99719.90
2017-12-05T11:10:57.871Z,99723.33
2017-12-05T11:12:00.919Z,99717.64
2017-12-05T11:13:03.920Z,99711.80
2017-12-05T11:14:07.102Z,99709.16
2017-12-05T11:15:10.578Z,99709.69
2017-12-05T11:16:13.946Z,99716.71
2017-12-05T11:17:17.039Z,99720.06
2017-12-05T11:18:20.569Z,99711.19
2017-12-05T11:19:23.678Z,99709.45
2017-12-05T11:20:26.826Z,99711.59
2017-12-05T11:21:30.381Z,99715.12
2017-12-05T11:22:33.534Z,99715.50
2017-12-05T11:23:36.476Z,99721.23
2017-12-05T11:24:39.468Z,99720.17
2017-12-05T11:25:42.667Z,99722.73
2017-12-05T11:26:45.779Z,99716.69
2017-12-05T11:27:49.194Z,99721.59
2017-12-05T11:28:52.216Z,99719.90
2017-12-05T11:29:55.150Z,99723.48
2017-12-05T11:30:58.185Z,99717.43
2017-12-05T11:32:01.664Z,99720.73
2017-12-05T11:33:04.728Z,99714.56
2017-12-05T11:34:08.951Z,99719.84
2017-12-05T11:35:11.967Z,99723.02
2017-12-05T11:36:15.041Z,99705.87
2017-12-05T11:37:18.286Z,99705.58
2017-12-05T11:38:21.401Z,99697.61
2017-12-05T11:39:24.442Z,99706.53
2017-12-05T11:40:28.013Z,99710.26
2017-12-05T11:41:31.052Z,99707.16
2017-12-05T11:42:34.341Z,99708.88
2017-12-05T11:43:37.460Z,99715.20
2017-12-05T11:44:41.259Z,99705.47
2017-12-05T11:45:44.700Z,99699.04
2017-12-05T11:46:47.648Z,99695.91
2017-12-05T11:47:50.582Z,99706.89
2017-12-05T11:48:54.410Z,99699.59
2017-12-05T11:50:00.343Z,99704.19
2017-12-05T11:51:04.019Z,99709.29
2017-12-05T11:52:07.084Z,99708.67
2017-12-05T11:53:10.796Z,99703.37
2017-12-05T11:54:14.338Z,99699.69
2017-12-05T11:55:18.433Z,99707.52
2017-12-05T11:56:21.407Z,99711.31
2017-12-05T11:57:24.460Z,99706.41
2017-12-05T11:58:27.938Z,99702.12
2017-12-05T11:59:31.592Z,99705.11
2017-12-05T12:00:35.119Z,99714.86
2017-12-05T12:01:38.138Z,99699.98
2017-12-05T12:02:41.518Z,99704.97
2017-12-05T12:03:44.559Z,99713.77
2017-12-05T12:04:49.390Z,99702.16
2017-12-05T12:05:53.200Z,99706.65
2017-12-05T12:06:56.337Z,99699.84
2017-12-05T12:07:59.627Z,99708.28
2017-12-05T12:09:02.621Z,99705.19
2017-12-05T12:10:06.489Z,99712.20
2017-12-05T12:11:12.420Z,99710.08
2017-12-05T12:12:17.235Z,99706.91
2017-12-05T12:13:26.882Z,99707.71
2017-12-05T12:14:30.574Z,99704.53
2017-12-05T12:15:34.873Z,99697.81
2017-12-05T12:16:38.871Z,99696.30
2017-12-05T12:17:41.929Z,99704.16
2017-12-05T12:18:45.421Z,99692.67
2017-12-05T12:19:49.075Z,99711.19
2017-12-05T12:20:56.205Z,99705.05
2017-12-05T12:21:59.728Z,99696.23
2017-12-05T12:23:07.513Z,99684.33
2017-12-05T12:24:11.077Z,99696.41
2017-12-05T12:25:16.112Z,99706.11
2017-12-05T12:26:19.079Z,99701.30
2017-12-05T12:27:22.860Z,99691.07
2017-12-05T12:28:25.952Z,99699.45
2017-12-05T12:29:29.842Z,99697.88
2017-12-05T12:30:33.051Z,99698.77
2017-12-05T12:31:38.166Z,99697.63
2017-12-05T12:32:41.130Z,99702.68
2017-12-05T12:33:44.131Z,99684.08